Cielo Di Monaco — 9HA3501 — position and weather

sailwx.info

Track history (hours):
 
Tides and Currents Weather Stations Pressure Air Temp Water Temp Dewpoint Dewpoint Depression Visibility Wind Speed Wind Dir Waves Ship Positions

Cielo Di Monaco

Last reported at 2018-Jun-08 01:26 UTC. Time now 2018-Jun-22 20:24 UTC.
Position S 33°15' E 032°09'.
Warning: this ship's position is 14 days out of date.

Length 180 m; draft 9.5 m.

Type: Ship. MMSI: 229666000.

Date/timePositionNaut miles runAvg speedWind from/ knotsBaromVisibWave heightAir tempDewpointWater temp
2018-Jun-08 01:26S 33°15' E 032°09'511.6
2018-Jun-08 01:00S 33°17' E 032°03'1911.9
2018-Jun-07 23:24S 33°23' E 031°42'512.0
2018-Jun-07 23:00S 33°25' E 031°36'612.0
2018-Jun-07 22:30S 33°27' E 031°30'612.0
2018-Jun-07 22:00S 33°29' E 031°23'611.9
2018-Jun-07 21:31S 33°31' E 031°16'611.9
2018-Jun-07 21:00S 33°34' E 031°10'611.8
2018-Jun-07 20:30S 33°35' E 031°03'611.7
2018-Jun-07 20:01S 33°37' E 030°56'611.5
2018-Jun-07 19:30S 33°39' E 030°50'611.5
2018-Jun-07 19:00S 33°41' E 030°43'611.2
2018-Jun-07 18:31S 33°43' E 030°37'510.7
2018-Jun-07 18:00S 33°45' E 030°31'510.5
2018-Jun-07 17:30S 33°47' E 030°25'510.6
2018-Jun-07 17:00S 33°49' E 030°19'710.9
2018-Jun-07 16:22S 33°51' E 030°11'411.0
2018-Jun-07 16:00S 33°52' E 030°07'511.0
2018-Jun-07 15:31S 33°54' E 030°00'611.2
2018-Jun-07 15:00S 33°55' E 029°54'611.6
2018-Jun-07 14:29S 33°57' E 029°47'611.5
2018-Jun-07 14:00S 33°58' E 029°40'611.6
2018-Jun-07 13:28S 33°60' E 029°33'611.9
2018-Jun-07 12:59S 34°01' E 029°26'612.1
2018-Jun-07 12:30S 34°03' E 029°19'49810.4
2018-Jun-05 12:29S 34°55' E 019°19'611.6
2018-Jun-05 12:00S 34°54' E 019°13'611.5
2018-Jun-05 11:30S 34°52' E 019°06'611.4
2018-Jun-05 11:01S 34°51' E 018°59'611.3
2018-Jun-05 10:30S 34°50' E 018°52'611.1
2018-Jun-05 10:01S 34°48' E 018°46'611.2
2018-Jun-05 09:31S 34°47' E 018°39'611.1
2018-Jun-05 09:01S 34°46' E 018°33'611.2
2018-Jun-05 08:29S 34°44' E 018°26'911.4
2018-Jun-05 07:40S 34°43' E 018°15'211.6
2018-Jun-05 07:30S 34°42' E 018°12'711.3
2018-Jun-05 06:51S 34°40' E 018°04'611.6
2018-Jun-05 06:18S 34°37' E 017°57'1511.6
2018-Jun-05 05:00S 34°29' E 017°41'911.3
2018-Jun-05 04:12S 34°25' E 017°31'310.5
2018-Jun-05 03:56S 34°24' E 017°29'  
Track history (hours):
 
Tides and Currents Weather Stations Pressure Air Temp Water Temp Dewpoint Dewpoint Depression Visibility Wind Speed Wind Dir Waves Ship Positions

Cielo Di Monaco

Last reported at 2018-Jun-08 01:26 UTC. Time now 2018-Jun-22 20:24 UTC.
Position S 33°15' E 032°09'.
Warning: this ship's position is 14 days out of date.

Length 180 m; draft 9.5 m.

Type: Ship. MMSI: 229666000.

Date/timePositionNaut miles runAvg speedWind from/ knotsBaromVisibWave heightAir tempDewpointWater temp
2018-Jun-08 01:26S 33°15' E 032°09'511.6
2018-Jun-08 01:00S 33°17' E 032°03'1911.9
2018-Jun-07 23:24S 33°23' E 031°42'512.0
2018-Jun-07 23:00S 33°25' E 031°36'612.0
2018-Jun-07 22:30S 33°27' E 031°30'612.0
2018-Jun-07 22:00S 33°29' E 031°23'611.9
2018-Jun-07 21:31S 33°31' E 031°16'611.9
2018-Jun-07 21:00S 33°34' E 031°10'611.8
2018-Jun-07 20:30S 33°35' E 031°03'611.7
2018-Jun-07 20:01S 33°37' E 030°56'611.5
2018-Jun-07 19:30S 33°39' E 030°50'611.5
2018-Jun-07 19:00S 33°41' E 030°43'611.2
2018-Jun-07 18:31S 33°43' E 030°37'510.7
2018-Jun-07 18:00S 33°45' E 030°31'510.5
2018-Jun-07 17:30S 33°47' E 030°25'510.6
2018-Jun-07 17:00S 33°49' E 030°19'710.9
2018-Jun-07 16:22S 33°51' E 030°11'411.0
2018-Jun-07 16:00S 33°52' E 030°07'511.0
2018-Jun-07 15:31S 33°54' E 030°00'611.2
2018-Jun-07 15:00S 33°55' E 029°54'611.6
2018-Jun-07 14:29S 33°57' E 029°47'611.5
2018-Jun-07 14:00S 33°58' E 029°40'611.6
2018-Jun-07 13:28S 33°60' E 029°33'611.9
2018-Jun-07 12:59S 34°01' E 029°26'612.1
2018-Jun-07 12:30S 34°03' E 029°19'49810.4
2018-Jun-05 12:29S 34°55' E 019°19'611.6
2018-Jun-05 12:00S 34°54' E 019°13'611.5
2018-Jun-05 11:30S 34°52' E 019°06'611.4
2018-Jun-05 11:01S 34°51' E 018°59'611.3
2018-Jun-05 10:30S 34°50' E 018°52'611.1
2018-Jun-05 10:01S 34°48' E 018°46'611.2
2018-Jun-05 09:31S 34°47' E 018°39'611.1
2018-Jun-05 09:01S 34°46' E 018°33'611.2
2018-Jun-05 08:29S 34°44' E 018°26'911.4
2018-Jun-05 07:40S 34°43' E 018°15'211.6
2018-Jun-05 07:30S 34°42' E 018°12'711.3
2018-Jun-05 06:51S 34°40' E 018°04'611.6
2018-Jun-05 06:18S 34°37' E 017°57'1511.6
2018-Jun-05 05:00S 34°29' E 017°41'911.3
2018-Jun-05 04:12S 34°25' E 017°31'310.5
2018-Jun-05 03:56S 34°24' E 017°29'  

Dump ship's entire track history